Time;durP1;ratioP1;P1;durP2;ratioP2;P2;SDS_P1;SDS_P2;PMS_P1;PMS_P2;Temp;Humidity;BMP_temperature;BMP_pressure;BME280_temperature;BME280_humidity;BME280_pressure;Samples;Min_cycle;Max_cycle;Signal;HPM_P1;HPM_P2
2022/10/17 00:03:01;;;;;;;23.90;13.00;;;;;;;14.80;61.83;100044.75;227488;1233;139830;-64
2022/10/17 00:08:06;;;;;;;19.00;12.60;;;;;;;14.70;61.92;100046.99;226894;1241;139449;-64
2022/10/17 00:13:16;;;;;;;23.50;13.70;;;;;;;14.59;61.93;100046.65;227824;1233;139898;-63
2022/10/17 00:18:20;;;;;;;19.60;11.80;;;;;;;14.52;62.11;100050.12;226804;1241;139746;-62
2022/10/17 00:23:23;;;;;;;19.50;12.20;;;;;;;14.52;62.16;100051.53;227662;1241;140094;-64
2022/10/17 00:28:26;;;;;;;16.70;11.50;;;;;;;14.52;62.21;100054.38;226894;1241;139663;-64
2022/10/17 00:33:29;;;;;;;20.40;12.70;;;;;;;14.53;62.44;100061.65;226721;1236;139466;-63
2022/10/17 00:38:33;;;;;;;19.50;12.70;;;;;;;14.52;62.55;100059.06;226728;1240;139368;-62
2022/10/17 00:43:58;;;;;;;15.70;11.90;;;;;;;14.48;62.58;100063.36;227569;1233;139412;-64
2022/10/17 00:49:08;;;;;;;18.30;13.00;;;;;;;14.40;62.54;100066.65;227637;1241;139677;-62
2022/10/17 00:54:14;;;;;;;20.30;12.00;;;;;;;14.34;62.64;100059.77;226803;1242;139451;-63
2022/10/17 00:59:20;;;;;;;16.00;12.00;;;;;;;14.30;62.76;100058.58;227627;1234;139358;-62
2022/10/17 01:04:23;;;;;;;17.80;11.80;;;;;;;14.27;62.91;100059.10;226764;1242;141121;-61
2022/10/17 01:09:27;;;;;;;15.40;11.50;;;;;;;14.27;63.03;100053.76;226786;1240;141344;-59
2022/10/17 01:14:45;;;;;;;15.90;11.30;;;;;;;14.28;63.12;100053.50;226847;1241;140250;-60
2022/10/17 01:20:10;;;;;;;20.00;12.10;;;;;;;14.28;63.34;100059.08;226776;1234;139392;-60
2022/10/17 01:25:33;;;;;;;16.80;11.40;;;;;;;14.29;63.55;100056.14;227704;1226;139664;-61
2022/10/17 01:30:58;;;;;;;19.50;12.20;;;;;;;14.31;63.59;100061.37;226887;1241;139795;-60
2022/10/17 01:36:14;;;;;;;17.20;11.20;;;;;;;14.29;63.60;100059.86;227614;1234;139450;-61
2022/10/17 01:41:55;;;;;;;17.20;11.80;;;;;;;14.26;63.64;100060.45;226871;1241;139590;-61
2022/10/17 01:47:05;;;;;;;20.00;11.10;;;;;;;14.24;63.72;100060.17;227236;1241;139639;-64
2022/10/17 01:52:19;;;;;;;17.10;11.20;;;;;;;14.28;63.84;100056.71;226712;1241;140587;-62
2022/10/17 01:57:36;;;;;;;18.10;11.90;;;;;;;14.29;63.81;100052.17;226763;1241;139650;-61
2022/10/17 02:02:46;;;;;;;19.70;11.70;;;;;;;14.30;63.74;100057.66;227695;1230;140064;-61
2022/10/17 02:07:50;;;;;;;14.90;11.00;;;;;;;14.29;63.76;100060.42;227605;1241;139355;-61
2022/10/17 02:13:13;;;;;;;16.30;11.80;;;;;;;14.25;63.42;100062.45;227652;1227;139313;-60
2022/10/17 02:18:37;;;;;;;20.20;12.60;;;;;;;14.15;63.45;100061.79;226550;1226;139318;-59
2022/10/17 02:23:59;;;;;;;16.40;11.30;;;;;;;14.08;63.46;100057.27;227489;1243;139296;-61
2022/10/17 02:29:15;;;;;;;22.00;12.40;;;;;;;14.02;63.77;100054.71;227634;1241;139236;-62
2022/10/17 02:34:31;;;;;;;16.50;11.00;;;;;;;14.01;63.93;100063.02;226594;1236;139619;-62
2022/10/17 02:39:37;;;;;;;16.70;11.60;;;;;;;14.04;63.92;100061.78;227553;1233;140019;-60
2022/10/17 02:44:43;;;;;;;19.30;11.60;;;;;;;14.07;63.92;100062.30;226502;1238;141373;-62
2022/10/17 02:49:54;;;;;;;21.70;12.80;;;;;;;14.05;63.88;100063.63;226475;1238;138871;-62
2022/10/17 02:55:07;;;;;;;199.00;131.40;;;;;;;14.02;63.78;100066.86;226628;1249;140390;-62
2022/10/17 03:00:13;;;;;;;26.10;15.30;;;;;;;14.00;63.79;100078.96;227688;1234;139879;-61
2022/10/17 03:05:28;;;;;;;21.20;12.50;;;;;;;13.94;63.47;100088.74;226461;1237;141372;-62
2022/10/17 03:10:30;;;;;;;20.70;12.40;;;;;;;13.84;63.29;100081.83;226684;1241;139596;-61
2022/10/17 03:15:34;;;;;;;22.30;12.50;;;;;;;13.73;63.24;100080.01;226841;1225;140372;-61
2022/10/17 03:20:38;;;;;;;233.40;145.20;;;;;;;13.63;63.22;100087.19;224993;1226;139221;-63
2022/10/17 03:25:41;;;;;;;19.70;12.80;;;;;;;13.64;63.46;100092.65;224892;1233;140476;-67
2022/10/17 03:30:47;;;;;;;25.00;13.00;;;;;;;13.64;63.46;100101.35;224821;1233;139594;-64
2022/10/17 03:35:50;;;;;;;20.50;13.00;;;;;;;13.57;63.30;100106.63;224637;1234;141570;-64
2022/10/17 03:40:56;;;;;;;20.30;12.70;;;;;;;13.51;63.46;100111.58;224860;1233;139101;-64
2022/10/17 03:46:01;;;;;;;21.50;12.30;;;;;;;13.43;63.54;100118.27;225153;1233;139161;-62
2022/10/17 03:51:08;;;;;;;32.70;18.90;;;;;;;13.36;63.68;100122.92;224582;1227;139424;-62
2022/10/17 03:56:20;;;;;;;22.40;12.90;;;;;;;13.33;63.75;100128.27;225077;1233;140924;-63
2022/10/17 04:01:38;;;;;;;28.20;14.00;;;;;;;13.26;63.71;100127.62;225147;1233;139465;-62
2022/10/17 04:06:43;;;;;;;38.00;22.90;;;;;;;13.16;63.68;100119.71;224829;1233;139261;-65
2022/10/17 04:11:46;;;;;;;18.80;12.60;;;;;;;13.15;64.00;100127.29;224910;1236;139866;-63
2022/10/17 04:16:50;;;;;;;22.90;13.10;;;;;;;13.15;64.04;100133.69;225141;1233;139850;-62
2022/10/17 04:21:56;;;;;;;22.90;13.20;;;;;;;13.13;63.92;100129.89;224819;1241;139625;-63
2022/10/17 04:26:59;;;;;;;28.60;14.50;;;;;;;13.10;64.31;100127.55;224506;1235;139701;-61
2022/10/17 04:32:04;;;;;;;27.30;13.80;;;;;;;13.07;64.25;100136.80;224628;1234;151147;-62
2022/10/17 04:37:20;;;;;;;22.70;12.70;;;;;;;13.03;64.27;100148.27;224480;1233;139828;-63
2022/10/17 04:42:24;;;;;;;23.50;13.80;;;;;;;12.97;64.51;100147.67;224768;1234;140656;-61
2022/10/17 04:47:29;;;;;;;23.60;12.70;;;;;;;12.93;64.48;100152.53;224918;1233;139309;-64
2022/10/17 04:52:37;;;;;;;24.30;13.70;;;;;;;12.92;64.34;100156.85;225105;1233;140066;-64
2022/10/17 04:57:43;;;;;;;22.10;13.90;;;;;;;12.95;64.80;100149.55;224757;1233;139579;-63
2022/10/17 05:02:56;;;;;;;26.40;14.80;;;;;;;12.95;64.56;100147.76;224800;1234;140505;-67
2022/10/17 05:08:01;;;;;;;22.20;13.70;;;;;;;12.95;64.59;100155.98;224809;1234;139551;-65
2022/10/17 05:13:08;;;;;;;;;;;;;;;12.87;64.58;100159.61;224757;1236;139368;-64
2022/10/17 05:18:11;;;;;;;23.80;13.90;;;;;;;12.79;64.50;100166.45;224887;1233;125325;-64
2022/10/17 05:23:16;;;;;;;23.00;13.40;;;;;;;12.74;65.01;100167.09;224744;1233;139345;-64
2022/10/17 05:28:22;;;;;;;28.10;14.50;;;;;;;12.71;64.81;100174.87;224994;1233;139310;-63
2022/10/17 05:33:27;;;;;;;38.70;13.50;;;;;;;12.69;64.86;100179.09;224664;1236;139584;-63
2022/10/17 05:38:31;;;;;;;31.00;13.90;;;;;;;12.71;64.89;100173.83;224682;1233;139971;-63
2022/10/17 05:43:37;;;;;;;32.50;14.90;;;;;;;12.79;65.02;100179.48;224222;1234;139354;-63
2022/10/17 05:48:41;;;;;;;28.10;13.80;;;;;;;12.80;64.85;100183.31;224671;1226;139455;-63
2022/10/17 05:53:52;;;;;;;22.20;13.60;;;;;;;12.77;64.79;100193.23;225055;1233;139426;-66
2022/10/17 05:59:00;;;;;;;;;;;;;;;12.75;64.76;100194.29;224916;1227;138947;-66
2022/10/17 06:04:14;;;;;;;20.30;12.70;;;;;;;12.74;65.16;100202.70;225142;1233;125263;-64
2022/10/17 06:09:18;;;;;;;20.40;13.70;;;;;;;12.76;65.58;100206.48;224614;1230;139577;-66
2022/10/17 06:14:25;;;;;;;23.60;13.40;;;;;;;12.79;65.50;100211.69;224627;1233;138910;-70
2022/10/17 06:19:35;;;;;;;23.40;14.50;;;;;;;12.88;65.90;100221.52;225098;1233;139908;-70
2022/10/17 06:24:39;;;;;;;23.60;13.60;;;;;;;13.02;65.87;100226.17;224824;1233;139738;-70
2022/10/17 06:29:45;;;;;;;21.40;14.30;;;;;;;13.16;66.20;100222.39;225119;1233;140948;-71
2022/10/17 06:34:48;;;;;;;22.10;14.80;;;;;;;13.29;66.21;100230.46;224663;1234;139528;-71
2022/10/17 06:39:53;;;;;;;21.00;15.60;;;;;;;13.40;66.28;100233.79;224868;1234;139637;-66
2022/10/17 06:44:58;;;;;;;25.00;16.40;;;;;;;13.49;66.48;100236.29;224833;1233;139133;-63
2022/10/17 06:50:15;;;;;;;25.60;16.20;;;;;;;13.60;66.50;100243.20;224964;1234;139428;-63
2022/10/17 06:55:33;;;;;;;25.60;14.50;;;;;;;13.72;66.66;100254.81;224761;1226;139038;-62
2022/10/17 07:01:10;;;;;;;26.30;14.70;;;;;;;13.91;66.87;100255.16;224628;1233;140748;-62
2022/10/17 07:06:16;;;;;;;31.50;15.70;;;;;;;14.11;66.85;100255.64;224609;1238;139764;-66
2022/10/17 07:11:22;;;;;;;25.90;15.10;;;;;;;14.31;66.93;100261.33;224590;1234;139542;-67
2022/10/17 07:16:27;;;;;;;32.80;16.20;;;;;;;14.48;67.02;100262.46;224856;1236;139702;-67
2022/10/17 07:21:38;;;;;;;32.50;16.50;;;;;;;14.66;67.02;100261.98;224818;1233;139676;-64
2022/10/17 07:26:45;;;;;;;29.80;15.80;;;;;;;14.81;66.91;100265.38;224698;1234;140076;-62
2022/10/17 07:31:50;;;;;;;34.10;15.40;;;;;;;14.95;66.75;100268.77;224685;1233;139065;-63
2022/10/17 07:36:55;;;;;;;26.50;13.70;;;;;;;15.10;66.81;100267.38;224608;1240;139516;-63
2022/10/17 07:41:58;;;;;;;37.70;14.40;;;;;;;15.31;66.72;100257.98;224245;1234;140216;-65
2022/10/17 07:47:03;;;;;;;225.60;141.40;;;;;;;15.58;66.85;100246.69;224625;1235;139843;-67
2022/10/17 07:52:10;;;;;;;173.70;111.10;;;;;;;15.86;66.85;100247.95;224476;1233;139519;-63
2022/10/17 07:57:14;;;;;;;69.60;37.80;;;;;;;16.07;66.39;100252.83;224510;1239;139768;-63
2022/10/17 08:02:24;;;;;;;40.10;21.10;;;;;;;16.23;66.12;100251.08;224496;1239;141199;-63
2022/10/17 08:07:29;;;;;;;36.60;15.00;;;;;;;16.38;65.98;100260.14;224813;1234;140143;-63
2022/10/17 08:12:34;;;;;;;32.80;14.80;;;;;;;16.51;65.79;100267.13;224747;1233;139498;-63
2022/10/17 08:17:38;;;;;;;27.10;14.70;;;;;;;16.64;65.46;100268.07;224781;1233;139466;-62
2022/10/17 08:22:42;;;;;;;32.40;13.10;;;;;;;16.78;65.30;100268.02;224754;1235;139855;-61
2022/10/17 08:27:45;;;;;;;22.70;12.70;;;;;;;17.00;65.04;100272.10;227393;1235;140057;-62
2022/10/17 08:32:48;;;;;;;31.50;18.50;;;;;;;17.27;65.00;100273.83;226696;1241;140102;-63
2022/10/17 08:37:52;;;;;;;20.20;11.60;;;;;;;17.52;64.43;100263.39;226473;1226;139506;-62
2022/10/17 08:43:07;;;;;;;23.80;12.10;;;;;;;17.76;64.05;100261.18;226463;1239;139868;-61
2022/10/17 08:48:15;;;;;;;14.60;9.50;;;;;;;17.96;63.47;100258.27;226742;1238;140400;-62
2022/10/17 08:53:53;;;;;;;17.80;10.40;;;;;;;18.18;62.91;100261.13;226539;1244;139928;-62
2022/10/17 08:58:57;;;;;;;16.00;10.10;;;;;;;18.40;62.25;100268.86;227377;1228;139281;-63
2022/10/17 09:04:09;;;;;;;16.00;10.10;;;;;;;18.56;61.65;100273.06;227413;1240;139156;-62
2022/10/17 09:09:31;;;;;;;21.60;9.70;;;;;;;18.70;61.13;100271.82;226792;1241;139973;-64
2022/10/17 09:14:52;;;;;;;11.80;6.40;;;;;;;18.84;60.56;100265.70;226830;1224;139000;-62
2022/10/17 09:19:58;;;;;;;14.10;8.00;;;;;;;18.97;59.91;100263.11;226723;1236;235076;-64
2022/10/17 09:25:11;;;;;;;13.50;8.40;;;;;;;19.11;59.67;100261.33;227459;1243;139512;-65
2022/10/17 09:30:35;;;;;;;14.80;9.00;;;;;;;19.27;59.42;100261.88;226638;1241;140440;-64
2022/10/17 09:35:56;;;;;;;11.60;8.20;;;;;;;19.45;59.06;100266.75;226641;1240;139100;-61
2022/10/17 09:41:01;;;;;;;14.30;8.40;;;;;;;19.58;58.56;100272.89;226651;1239;139410;-62
2022/10/17 09:46:11;;;;;;;;;;;;;;;19.70;58.28;100274.11;226753;1242;139060;-64
2022/10/17 09:51:15;;;;;;;18.60;8.10;;;;;;;19.82;57.91;100273.14;227746;1234;126316;-61
2022/10/17 09:56:28;;;;;;;14.60;8.30;;;;;;;19.96;57.72;100268.95;226756;1239;139469;-62
2022/10/17 10:01:33;;;;;;;13.20;7.90;;;;;;;20.10;57.48;100269.64;226630;1238;139353;-61
2022/10/17 10:06:38;;;;;;;14.60;7.70;;;;;;;20.23;57.08;100268.94;226693;1241;139058;-64
2022/10/17 10:11:55;;;;;;;12.50;7.60;;;;;;;20.36;56.80;100265.16;226782;1241;139260;-62
2022/10/17 10:16:59;;;;;;;12.60;7.50;;;;;;;20.55;56.63;100261.77;226756;1244;140292;-66
2022/10/17 10:22:13;;;;;;;13.70;7.50;;;;;;;20.76;56.17;100261.30;227579;1225;138982;-64
2022/10/17 10:27:17;;;;;;;15.20;8.40;;;;;;;20.92;55.68;100252.64;226718;1247;139993;-62
2022/10/17 10:32:29;;;;;;;13.30;7.40;;;;;;;21.10;55.52;100251.83;226678;1240;140466;-63
2022/10/17 10:37:43;;;;;;;13.80;7.60;;;;;;;21.25;55.10;100248.04;226574;1241;140428;-61
2022/10/17 10:42:49;;;;;;;13.80;7.10;;;;;;;21.38;54.75;100253.04;226612;1250;139406;-62
2022/10/17 10:47:59;;;;;;;14.50;8.00;;;;;;;21.46;54.29;100247.44;226452;1244;139274;-62
2022/10/17 10:53:04;;;;;;;10.80;7.00;;;;;;;21.54;54.00;100245.14;226677;1247;139397;-64
2022/10/17 10:58:37;;;;;;;13.10;7.60;;;;;;;21.63;53.76;100234.00;226716;1242;139263;-63
2022/10/17 11:04:06;;;;;;;14.70;7.50;;;;;;;21.73;53.50;100228.08;226692;1242;140073;-63
2022/10/17 11:09:15;;;;;;;16.90;8.00;;;;;;;21.82;53.32;100227.41;227434;1234;139710;-62
2022/10/17 11:14:35;;;;;;;17.80;8.00;;;;;;;21.90;52.97;100225.98;226561;1243;139091;-64
2022/10/17 11:19:51;;;;;;;11.20;6.50;;;;;;;21.97;52.77;100217.61;226556;1241;139299;-64
2022/10/17 11:24:59;;;;;;;16.20;7.30;;;;;;;22.05;52.41;100217.23;226408;1234;139706;-63
2022/10/17 11:30:04;;;;;;;9.80;6.90;;;;;;;22.15;52.32;100216.52;226555;1244;139846;-65
2022/10/17 11:35:34;;;;;;;14.90;7.20;;;;;;;22.23;51.96;100215.27;226576;1242;140125;-66
2022/10/17 11:40:41;;;;;;;20.60;8.70;;;;;;;22.38;51.76;100213.15;226532;1241;139940;-65
2022/10/17 11:45:55;;;;;;;15.50;6.90;;;;;;;22.48;51.49;100209.53;226490;1249;138786;-63
2022/10/17 11:51:18;;;;;;;13.20;7.10;;;;;;;22.57;51.16;100205.73;226518;1238;140432;-64
2022/10/17 11:56:53;;;;;;;9.00;6.40;;;;;;;22.68;50.89;100206.36;226676;1238;139112;-64
2022/10/17 12:02:03;;;;;;;12.80;6.10;;;;;;;22.73;50.58;100207.55;226418;1234;138738;-63
2022/10/17 12:07:16;;;;;;;13.30;7.00;;;;;;;22.77;50.43;100202.05;226614;1226;139941;-64
2022/10/17 12:12:27;;;;;;;15.00;7.00;;;;;;;22.82;50.32;100195.08;226651;1241;139724;-64
2022/10/17 12:17:40;;;;;;;10.40;6.40;;;;;;;22.88;50.43;100191.96;227430;1233;139306;-63
2022/10/17 12:22:47;;;;;;;11.80;6.70;;;;;;;22.95;50.09;100186.31;227433;1238;139500;-61
2022/10/17 12:28:05;;;;;;;10.10;7.10;;;;;;;22.99;49.92;100178.53;225198;1234;140832;-65
2022/10/17 12:33:10;;;;;;;14.40;7.40;;;;;;;23.03;49.67;100173.77;224760;1234;139220;-63
2022/10/17 12:38:17;;;;;;;11.10;7.00;;;;;;;23.06;49.62;100170.96;224801;1233;139529;-64
2022/10/17 12:43:26;;;;;;;11.00;7.00;;;;;;;23.11;49.57;100169.04;224724;1233;138931;-66
2022/10/17 12:48:33;;;;;;;9.50;6.70;;;;;;;23.15;49.73;100169.17;224797;1233;139254;-66
2022/10/17 12:53:49;;;;;;;68.40;47.60;;;;;;;23.19;49.33;100163.91;225069;1233;139222;-61
2022/10/17 12:59:08;;;;;;;17.00;10.10;;;;;;;23.24;49.28;100165.01;226443;1241;139315;-65
2022/10/17 13:04:11;;;;;;;11.30;7.20;;;;;;;23.33;49.14;100158.48;226783;1249;138916;-62
2022/10/17 13:09:37;;;;;;;12.40;6.90;;;;;;;23.43;49.00;100158.06;226772;1241;139500;-63
2022/10/17 13:14:41;;;;;;;9.70;5.90;;;;;;;23.47;48.39;100157.94;227501;1234;139327;-62
2022/10/17 13:19:45;;;;;;;11.80;5.90;;;;;;;23.48;48.19;100154.90;227514;1243;139261;-62
2022/10/17 13:24:51;;;;;;;8.30;5.70;;;;;;;23.49;47.97;100153.69;226884;1240;139182;-65
2022/10/17 13:29:57;;;;;;;9.80;5.60;;;;;;;23.47;47.52;100152.45;226975;1237;139479;-62
2022/10/17 13:35:09;;;;;;;9.80;6.00;;;;;;;23.48;47.38;100148.14;227652;1233;139132;-62
2022/10/17 13:40:16;;;;;;;12.40;6.00;;;;;;;23.50;47.31;100149.65;226913;1239;139412;-63
2022/10/17 13:45:46;;;;;;;8.70;5.80;;;;;;;23.51;47.08;100147.92;226724;1241;139196;-62
2022/10/17 13:50:52;;;;;;;8.90;5.70;;;;;;;23.48;46.99;100151.98;226735;1241;140000;-64
2022/10/17 13:56:24;;;;;;;8.90;6.00;;;;;;;23.49;46.97;100150.15;226592;1233;138941;-63
2022/10/17 14:01:37;;;;;;;8.00;5.90;;;;;;;23.50;46.85;100152.69;226633;1238;138784;-64
2022/10/17 14:06:42;;;;;;;13.00;6.20;;;;;;;23.49;46.74;100144.62;226411;1238;139567;-62
2022/10/17 14:12:05;;;;;;;7.20;6.00;;;;;;;23.48;46.61;100147.44;227511;1231;140656;-63
2022/10/17 14:17:20;;;;;;;10.20;5.90;;;;;;;23.49;46.67;100142.52;226668;1240;139033;-63
2022/10/17 14:22:32;;;;;;;18.80;9.30;;;;;;;23.49;46.73;100140.47;226685;1234;139995;-62
2022/10/17 14:27:50;;;;;;;13.00;7.80;;;;;;;23.48;46.78;100143.14;226663;1238;140192;-63
2022/10/17 14:32:56;;;;;;;8.90;6.50;;;;;;;23.45;46.81;100146.30;226678;1239;139553;-62
2022/10/17 14:38:03;;;;;;;9.90;6.10;;;;;;;23.43;46.81;100145.19;226817;1243;139283;-65
2022/10/17 14:43:06;;;;;;;14.20;7.30;;;;;;;23.43;46.87;100138.33;226658;1238;139604;-65
2022/10/17 14:48:13;;;;;;;12.40;7.60;;;;;;;23.42;46.83;100135.56;226731;1238;139516;-63
2022/10/17 14:53:16;;;;;;;118.40;87.50;;;;;;;23.39;46.81;100136.40;226780;1241;139970;-63
2022/10/17 14:58:26;;;;;;;14.90;9.70;;;;;;;23.35;46.91;100135.54;227675;1234;139571;-65
2022/10/17 15:03:29;;;;;;;10.40;7.20;;;;;;;23.27;47.03;100134.30;226732;1241;140428;-63
2022/10/17 15:08:32;;;;;;;10.70;7.30;;;;;;;23.19;47.12;100132.58;226837;1241;139145;-62
2022/10/17 15:13:35;;;;;;;12.10;6.90;;;;;;;23.09;47.30;100136.19;227622;1241;139767;-62
2022/10/17 15:18:47;;;;;;;15.60;6.70;;;;;;;23.04;47.32;100139.45;227567;1235;139328;-62
2022/10/17 15:23:51;;;;;;;14.50;7.00;;;;;;;23.00;47.40;100140.38;226732;1233;139231;-63
2022/10/17 15:28:54;;;;;;;13.10;7.10;;;;;;;22.90;47.53;100142.44;227547;1240;139155;-63
2022/10/17 15:34:00;;;;;;;17.60;8.20;;;;;;;22.76;47.60;100142.52;227588;1234;139033;-63
2022/10/17 15:39:03;;;;;;;18.70;9.50;;;;;;;22.57;47.96;100144.27;226744;1234;138996;-63
2022/10/17 15:44:06;;;;;;;20.30;9.50;;;;;;;22.39;48.39;100145.77;227532;1230;140117;-64
2022/10/17 15:49:13;;;;;;;22.00;8.40;;;;;;;22.19;48.78;100148.72;226674;1238;139303;-61
2022/10/17 15:54:15;;;;;;;19.50;8.90;;;;;;;21.99;49.18;100153.13;226840;1233;138935;-64
2022/10/17 15:59:25;;;;;;;18.70;8.60;;;;;;;21.79;49.55;100155.27;227583;1234;139604;-61
2022/10/17 16:04:29;;;;;;;573.10;432.60;;;;;;;21.62;49.78;100159.36;227628;1234;138841;-60
2022/10/17 16:09:33;;;;;;;43.40;26.40;;;;;;;21.44;50.38;100165.13;226721;1241;141589;-60
2022/10/17 16:14:36;;;;;;;21.90;11.10;;;;;;;21.26;50.62;100160.92;227542;1234;139222;-62
2022/10/17 16:19:39;;;;;;;30.50;10.20;;;;;;;21.09;51.02;100162.21;226780;1238;140521;-64
2022/10/17 16:24:42;;;;;;;22.90;9.70;;;;;;;20.93;51.46;100163.95;226771;1238;140122;-61
2022/10/17 16:29:45;;;;;;;21.40;10.30;;;;;;;20.74;51.62;100167.10;226736;1242;139480;-62
2022/10/17 16:34:48;;;;;;;21.50;10.20;;;;;;;20.53;52.00;100172.27;226787;1241;139465;-63
2022/10/17 16:39:57;;;;;;;24.60;10.30;;;;;;;20.38;52.42;100169.03;226848;1241;140664;-62
2022/10/17 16:45:00;;;;;;;23.30;10.20;;;;;;;20.31;52.77;100164.56;226811;1241;139623;-62
2022/10/17 16:50:04;;;;;;;19.00;9.00;;;;;;;20.25;53.00;100163.85;226767;1238;139424;-61
2022/10/17 16:55:08;;;;;;;23.80;11.20;;;;;;;20.13;53.33;100162.70;226825;1249;139791;-65
2022/10/17 17:00:12;;;;;;;31.60;13.00;;;;;;;20.00;53.52;100162.48;227498;1237;139202;-62
2022/10/17 17:05:15;;;;;;;26.30;10.40;;;;;;;19.86;53.83;100162.79;226823;1241;139659;-62
2022/10/17 17:10:18;;;;;;;34.40;10.70;;;;;;;19.71;54.19;100159.93;227551;1227;140188;-61
2022/10/17 17:15:21;;;;;;;93.70;73.40;;;;;;;19.56;54.48;100156.89;227509;1233;139449;-61
2022/10/17 17:20:24;;;;;;;38.50;19.60;;;;;;;19.53;54.88;100155.16;226764;1231;141680;-65
2022/10/17 17:25:27;;;;;;;48.50;14.90;;;;;;;19.51;55.01;100156.77;226721;1245;139375;-62
2022/10/17 17:30:32;;;;;;;35.20;12.80;;;;;;;19.40;55.10;100160.73;226694;1234;140085;-63
2022/10/17 17:35:39;;;;;;;34.50;11.90;;;;;;;19.29;55.33;100165.77;226666;1238;139490;-63
2022/10/17 17:41:03;;;;;;;19.90;9.10;;;;;;;19.14;55.59;100166.76;226203;1233;139432;-66
2022/10/17 17:46:10;;;;;;;51.60;25.30;;;;;;;19.11;56.24;100167.02;226470;1239;139788;-64
2022/10/17 17:51:40;;;;;;;20.10;10.20;;;;;;;19.13;56.19;100165.30;226587;1234;139796;-62
2022/10/17 17:57:09;;;;;;;66.80;40.40;;;;;;;19.12;56.14;100157.77;227509;1230;140274;-64
2022/10/17 18:02:42;;;;;;;28.20;13.40;;;;;;;19.09;56.23;100159.43;226576;1237;138977;-62
2022/10/17 18:07:49;;;;;;;26.00;10.70;;;;;;;19.01;56.26;100160.86;227323;1227;140409;-64
2022/10/17 18:12:56;;;;;;;25.80;10.10;;;;;;;18.88;56.18;100170.64;227420;1234;139473;-65
2022/10/17 18:18:13;;;;;;;18.00;10.10;;;;;;;18.75;56.39;100168.62;227336;1234;139563;-62
2022/10/17 18:23:42;;;;;;;19.20;10.10;;;;;;;18.59;56.62;100168.58;227528;1227;140610;-62
2022/10/17 18:28:48;;;;;;;28.40;11.10;;;;;;;18.45;56.83;100171.63;226698;1241;141279;-62
2022/10/17 18:34:01;;;;;;;30.40;12.30;;;;;;;18.32;57.09;100170.11;227543;1234;139411;-63
2022/10/17 18:39:11;;;;;;;31.80;13.50;;;;;;;18.19;57.23;100167.30;226447;1234;140860;-61
2022/10/17 18:44:25;;;;;;;38.60;14.90;;;;;;;18.08;57.53;100169.58;227322;1227;139492;-64
2022/10/17 18:49:35;;;;;;;49.70;15.00;;;;;;;18.00;57.73;100173.42;226680;1233;139698;-64
2022/10/17 18:54:41;;;;;;;31.40;12.40;;;;;;;17.92;57.91;100173.09;226808;1243;140820;-60
2022/10/17 18:59:44;;;;;;;25.30;11.00;;;;;;;17.86;58.32;100169.07;226760;1234;139979;-62
2022/10/17 19:04:46;;;;;;;18.10;11.30;;;;;;;17.81;58.45;100164.59;226942;1238;139599;-60
2022/10/17 19:09:50;;;;;;;22.50;10.60;;;;;;;17.74;58.64;100164.16;226975;1227;139163;-62
2022/10/17 19:14:55;;;;;;;23.00;12.60;;;;;;;17.71;58.69;100167.11;226734;1233;139491;-59
2022/10/17 19:19:58;;;;;;;41.80;15.10;;;;;;;17.61;58.96;100169.61;226808;1249;139213;-59
2022/10/17 19:25:01;;;;;;;33.10;16.70;;;;;;;17.51;58.98;100170.01;227634;1241;139282;-60
2022/10/17 19:30:05;;;;;;;43.30;16.70;;;;;;;17.40;59.08;100170.80;226958;1233;139518;-61
2022/10/17 19:35:10;;;;;;;30.90;16.10;;;;;;;17.30;59.12;100163.27;227505;1234;139542;-60
2022/10/17 19:40:13;;;;;;;31.20;17.20;;;;;;;17.19;59.29;100172.28;226626;1240;140513;-62
2022/10/17 19:45:16;;;;;;;33.40;16.90;;;;;;;17.14;59.54;100178.23;226805;1241;140141;-65
2022/10/17 19:50:18;;;;;;;33.20;17.40;;;;;;;17.12;59.83;100183.41;226531;1234;139487;-61
2022/10/17 19:55:21;;;;;;;43.50;17.90;;;;;;;17.08;59.84;100186.89;226724;1243;140740;-63
2022/10/17 20:00:26;;;;;;;32.40;15.70;;;;;;;17.00;59.73;100189.59;227595;1233;140260;-62
2022/10/17 20:05:29;;;;;;;31.40;18.00;;;;;;;16.92;59.84;100186.21;226846;1237;139357;-63
2022/10/17 20:10:33;;;;;;;28.90;16.80;;;;;;;16.83;60.03;100177.18;226815;1233;139751;-60
2022/10/17 20:15:36;;;;;;;30.00;16.00;;;;;;;16.72;60.18;100176.99;227569;1241;139870;-65
2022/10/17 20:20:39;;;;;;;37.30;17.00;;;;;;;16.63;60.35;100179.95;226858;1241;139636;-63
2022/10/17 20:25:42;;;;;;;28.90;13.60;;;;;;;16.54;60.43;100182.02;226585;1233;139513;-61
2022/10/17 20:30:46;;;;;;;25.30;12.80;;;;;;;16.50;60.74;100185.49;227605;1233;140286;-62
2022/10/17 20:35:49;;;;;;;26.40;12.30;;;;;;;16.52;60.88;100188.77;226792;1241;140216;-63
2022/10/17 20:40:52;;;;;;;26.60;14.00;;;;;;;16.50;60.83;100189.08;226874;1234;140747;-61
2022/10/17 20:45:55;;;;;;;25.10;13.40;;;;;;;16.45;60.90;100184.94;226681;1243;139433;-62
2022/10/17 20:51:15;;;;;;;29.20;13.90;;;;;;;16.37;61.00;100182.27;226743;1244;139665;-62
2022/10/17 20:56:33;;;;;;;38.50;17.60;;;;;;;16.30;61.06;100180.59;227717;1237;140276;-62
2022/10/17 21:01:35;;;;;;;38.50;19.60;;;;;;;16.21;61.13;100176.17;226751;1233;139004;-63
2022/10/17 21:06:39;;;;;;;38.70;20.60;;;;;;;16.07;61.01;100169.58;227612;1238;139567;-64
2022/10/17 21:11:42;;;;;;;40.30;21.10;;;;;;;15.95;60.95;100170.06;226776;1241;140038;-63
2022/10/17 21:16:45;;;;;;;41.10;21.00;;;;;;;15.86;60.99;100171.33;226872;1234;139470;-61
2022/10/17 21:21:49;;;;;;;34.60;20.20;;;;;;;15.83;61.21;100161.70;226805;1241;140426;-63
2022/10/17 21:26:54;;;;;;;38.90;20.70;;;;;;;15.82;61.32;100160.14;226708;1241;139983;-63
2022/10/17 21:31:57;;;;;;;35.60;21.00;;;;;;;15.79;61.24;100153.00;226623;1237;139371;-61
2022/10/17 21:37:00;;;;;;;36.80;20.60;;;;;;;15.72;61.34;100151.86;226790;1234;139385;-60
2022/10/17 21:42:03;;;;;;;39.30;20.60;;;;;;;15.67;61.34;100150.41;226329;1241;140065;-65
2022/10/17 21:47:07;;;;;;;35.00;19.50;;;;;;;15.59;61.29;100150.16;226592;1233;139866;-63
2022/10/17 21:52:10;;;;;;;38.60;19.90;;;;;;;15.50;61.27;100156.50;226568;1236;140427;-61
2022/10/17 21:57:13;;;;;;;31.70;19.00;;;;;;;15.40;61.48;100155.50;226799;1240;140622;-60
2022/10/17 22:02:16;;;;;;;31.60;20.00;;;;;;;15.30;61.33;100151.15;226804;1239;140394;-63
2022/10/17 22:07:19;;;;;;;36.40;19.70;;;;;;;15.21;61.44;100143.14;226764;1236;139396;-62
2022/10/17 22:12:22;;;;;;;34.90;19.50;;;;;;;15.19;61.59;100142.04;227586;1234;141422;-64
2022/10/17 22:17:25;;;;;;;33.40;19.50;;;;;;;15.19;61.75;100136.52;227561;1241;139589;-62
2022/10/17 22:22:29;;;;;;;32.80;20.20;;;;;;;15.16;61.70;100134.15;227584;1242;140369;-64
2022/10/17 22:27:32;;;;;;;34.20;19.50;;;;;;;15.10;61.56;100133.45;226732;1230;139858;-62
2022/10/17 22:32:35;;;;;;;39.10;20.10;;;;;;;15.03;61.82;100131.58;226900;1233;140062;-65
2022/10/17 22:37:38;;;;;;;33.30;20.20;;;;;;;14.97;61.68;100123.92;227675;1227;140094;-62
2022/10/17 22:42:41;;;;;;;35.10;20.40;;;;;;;14.87;61.76;100120.59;226870;1241;139705;-61
2022/10/17 22:47:44;;;;;;;37.40;19.50;;;;;;;14.77;61.83;100120.52;227586;1234;139201;-60
2022/10/17 22:52:47;;;;;;;34.00;19.90;;;;;;;14.70;61.87;100120.41;227530;1234;140989;-61
2022/10/17 22:57:50;;;;;;;33.20;19.50;;;;;;;14.65;61.95;100117.87;226913;1241;140532;-63